createdAt,value
2022-11-01T00:02:49.340Z,47.69
2022-11-01T00:07:54.070Z,47.29
2022-11-01T00:12:55.851Z,47.67
2022-11-01T00:17:57.745Z,47.35
2022-11-01T00:22:59.918Z,47.31
2022-11-01T00:28:02.201Z,47.25
2022-11-01T00:33:04.655Z,47.40
2022-11-01T00:38:06.637Z,47.48
2022-11-01T00:43:09.031Z,47.40
2022-11-01T00:48:11.647Z,47.36
2022-11-01T00:53:13.617Z,47.68
2022-11-01T00:58:15.626Z,47.47
2022-11-01T01:03:17.546Z,47.39
2022-11-01T01:08:19.883Z,47.34
2022-11-01T01:13:22.263Z,47.54
2022-11-01T01:18:24.128Z,47.76
2022-11-01T01:23:26.195Z,47.64
2022-11-01T01:28:28.164Z,47.92
2022-11-01T01:33:30.482Z,47.38
2022-11-01T01:38:33.145Z,47.52
2022-11-01T01:43:42.743Z,47.25
2022-11-01T01:48:48.741Z,47.20
2022-11-01T01:53:55.788Z,47.44
2022-11-01T01:59:11.092Z,47.80
2022-11-01T02:04:23.470Z,47.26
2022-11-01T02:09:28.154Z,47.78
2022-11-01T02:14:33.138Z,47.65
2022-11-01T02:20:09.304Z,47.85
2022-11-01T02:25:35.551Z,47.87
2022-11-01T02:30:52.457Z,47.78
2022-11-01T02:36:12.039Z,48.17
2022-11-01T02:41:23.647Z,47.86
2022-11-01T02:46:46.659Z,48.00
2022-11-01T02:51:50.496Z,47.66
2022-11-01T02:56:52.769Z,47.93
2022-11-01T03:02:02.334Z,47.67
2022-11-01T03:07:09.553Z,47.92
2022-11-01T03:12:25.984Z,48.00
2022-11-01T03:17:47.088Z,47.74
2022-11-01T03:22:58.561Z,47.89
2022-11-01T03:28:06.682Z,47.60
2022-11-01T03:33:11.739Z,47.68
2022-11-01T03:38:17.507Z,47.90
2022-11-01T03:43:23.211Z,47.99
2022-11-01T03:48:25.552Z,47.86
2022-11-01T03:53:27.330Z,47.98
2022-11-01T03:58:45.329Z,47.78
2022-11-01T04:03:47.292Z,47.84
2022-11-01T04:08:49.187Z,47.99
2022-11-01T04:13:51.015Z,47.80
2022-11-01T04:19:10.992Z,47.94
2022-11-01T04:24:21.318Z,47.85
2022-11-01T04:29:23.342Z,48.00
2022-11-01T04:34:43.538Z,48.02
2022-11-01T04:39:45.493Z,47.88
2022-11-01T04:44:48.366Z,47.67
2022-11-01T04:49:50.404Z,48.05
2022-11-01T04:54:52.357Z,47.79
2022-11-01T04:59:56.228Z,47.26
2022-11-01T05:04:58.047Z,47.34
2022-11-01T05:10:00.353Z,47.55
2022-11-01T05:15:02.098Z,47.33
2022-11-01T05:20:04.171Z,47.53
2022-11-01T05:25:09.618Z,47.37
2022-11-01T05:30:12.053Z,47.11
2022-11-01T05:35:13.850Z,47.53
2022-11-01T05:40:15.773Z,47.18
2022-11-01T05:45:17.861Z,47.34
2022-11-01T05:50:19.811Z,47.14
2022-11-01T05:55:21.543Z,47.49
2022-11-01T06:00:23.365Z,47.32
2022-11-01T06:05:25.972Z,47.32
2022-11-01T06:10:28.034Z,47.05
2022-11-01T06:15:33.100Z,46.86
2022-11-01T06:20:38.472Z,46.80
2022-11-01T06:25:40.319Z,46.84
2022-11-01T06:30:44.137Z,46.72
2022-11-01T06:35:46.000Z,47.19
2022-11-01T06:40:48.366Z,47.00
2022-11-01T06:45:50.142Z,46.84
2022-11-01T06:50:54.134Z,46.84
2022-11-01T06:55:59.318Z,46.82
2022-11-01T07:01:02.967Z,46.86
2022-11-01T07:06:04.977Z,46.98
2022-11-01T07:11:07.010Z,47.11
2022-11-01T07:16:08.878Z,46.94
2022-11-01T07:21:10.665Z,46.72
2022-11-01T07:26:12.451Z,46.84
2022-11-01T07:31:14.199Z,46.72
2022-11-01T07:36:16.125Z,46.48
2022-11-01T07:41:17.979Z,46.87
2022-11-01T07:46:19.862Z,46.71
2022-11-01T07:51:21.541Z,46.31
2022-11-01T07:56:23.396Z,45.74
2022-11-01T08:01:25.290Z,45.58
2022-11-01T08:06:27.243Z,36.57
2022-11-01T08:11:29.090Z,37.59
2022-11-01T08:16:30.777Z,39.47
2022-11-01T08:21:32.629Z,40.17
2022-11-01T08:26:34.343Z,40.69
2022-11-01T08:31:41.329Z,41.17
2022-11-01T08:36:43.105Z,41.59
2022-11-01T08:41:48.458Z,41.71
2022-11-01T08:46:54.555Z,42.05
2022-11-01T08:51:56.294Z,42.29
2022-11-01T08:56:58.197Z,42.68
2022-11-01T09:02:00.049Z,42.65
2022-11-01T09:07:01.982Z,42.67
2022-11-01T09:12:10.958Z,43.02
2022-11-01T09:17:15.905Z,43.25
2022-11-01T09:22:17.802Z,43.02
2022-11-01T09:27:19.592Z,43.39
2022-11-01T09:32:21.366Z,43.81
2022-11-01T09:37:23.682Z,43.78
2022-11-01T09:42:37.167Z,43.68
2022-11-01T09:47:46.214Z,43.81
2022-11-01T09:52:49.514Z,43.75
2022-11-01T09:58:00.911Z,44.02
2022-11-01T10:03:33.815Z,44.06
2022-11-01T10:08:56.151Z,44.07
2022-11-01T10:14:19.159Z,43.79
2022-11-01T10:19:24.308Z,43.85
2022-11-01T10:24:44.464Z,44.20
2022-11-01T10:30:09.934Z,44.05
2022-11-01T10:35:16.411Z,44.16
2022-11-01T10:40:27.361Z,43.94
2022-11-01T10:45:31.006Z,43.96
2022-11-01T10:50:33.532Z,44.07
2022-11-01T10:55:57.036Z,43.77
2022-11-01T11:01:01.523Z,43.95
2022-11-01T11:06:06.693Z,43.67
2022-11-01T11:11:14.626Z,44.16
2022-11-01T11:16:30.396Z,43.94
2022-11-01T11:21:34.740Z,43.58
2022-11-01T11:26:39.491Z,43.95
2022-11-01T11:31:41.960Z,44.12
2022-11-01T11:36:49.840Z,44.23
2022-11-01T11:41:51.639Z,43.86
2022-11-01T11:46:59.242Z,43.84
2022-11-01T11:52:00.990Z,44.04
2022-11-01T11:57:21.976Z,43.96
2022-11-01T12:02:30.645Z,43.79
2022-11-01T12:07:53.192Z,44.13
2022-11-01T12:12:57.190Z,43.69
2022-11-01T12:18:15.787Z,44.05
2022-11-01T12:23:33.035Z,43.77
2022-11-01T12:28:39.718Z,43.92
2022-11-01T12:33:48.598Z,43.85
2022-11-01T12:38:55.509Z,43.72
2022-11-01T12:43:57.474Z,43.92
2022-11-01T12:49:14.564Z,44.00
2022-11-01T12:54:29.246Z,44.09
2022-11-01T12:59:36.502Z,42.06
2022-11-01T13:04:47.773Z,42.47
2022-11-01T13:10:28.339Z,42.54
2022-11-01T13:15:40.027Z,42.65
2022-11-01T13:21:10.824Z,42.85
2022-11-01T13:26:24.719Z,42.60
2022-11-01T13:31:47.122Z,42.96
2022-11-01T13:37:14.111Z,42.83
2022-11-01T13:42:17.636Z,42.94
2022-11-01T13:47:48.445Z,43.06
2022-11-01T13:53:03.267Z,42.71
2022-11-01T13:58:06.928Z,43.04
2022-11-01T14:03:32.790Z,43.49
2022-11-01T14:08:40.244Z,43.28
2022-11-01T14:13:47.194Z,43.38
2022-11-01T14:19:04.182Z,43.13
2022-11-01T14:24:16.429Z,43.24
2022-11-01T14:29:18.233Z,43.05
2022-11-01T14:34:25.819Z,43.26
2022-11-01T14:39:41.176Z,42.98
2022-11-01T14:44:50.527Z,42.95
2022-11-01T14:49:56.798Z,43.00
2022-11-01T14:55:13.811Z,40.88
2022-11-01T15:00:30.473Z,40.41
2022-11-01T15:10:41.660Z,39.74
2022-11-01T15:15:43.553Z,40.15
2022-11-01T15:20:50.444Z,40.03
2022-11-01T15:25:53.499Z,40.24
2022-11-01T15:31:01.459Z,40.50
2022-11-01T15:36:18.735Z,40.74
2022-11-01T15:41:27.957Z,40.48
2022-11-01T15:46:43.098Z,40.33
2022-11-01T15:51:52.647Z,40.93
2022-11-01T15:56:58.582Z,41.08
2022-11-01T16:07:07.376Z,40.96
2022-11-01T16:12:32.191Z,41.48
2022-11-01T16:17:39.627Z,41.74
2022-11-01T16:22:41.466Z,41.65
2022-11-01T16:27:57.379Z,42.10
2022-11-01T16:33:28.744Z,42.23
2022-11-01T16:38:33.380Z,42.31
2022-11-01T16:43:36.034Z,42.16
2022-11-01T16:49:15.886Z,41.91
2022-11-01T16:54:17.646Z,42.03
2022-11-01T16:59:37.023Z,42.40
2022-11-01T17:04:40.006Z,42.36
2022-11-01T17:09:41.827Z,42.09
2022-11-01T17:14:44.897Z,42.13
2022-11-01T17:19:51.377Z,42.02
2022-11-01T17:24:53.226Z,41.86
2022-11-01T17:29:54.911Z,42.14
2022-11-01T17:34:56.573Z,42.20
2022-11-01T17:39:59.860Z,42.50
2022-11-01T17:45:01.826Z,42.69
2022-11-01T17:50:04.435Z,42.63
2022-11-01T17:55:07.207Z,42.47
2022-11-01T18:00:10.009Z,42.71
2022-11-01T18:05:11.838Z,42.87
2022-11-01T18:10:57.235Z,42.73
2022-11-01T18:16:15.777Z,42.86
2022-11-01T18:21:39.089Z,42.99
2022-11-01T18:26:44.809Z,42.75
2022-11-01T18:31:59.708Z,42.79
2022-11-01T18:37:35.196Z,42.96
2022-11-01T18:42:37.421Z,42.91
2022-11-01T18:47:45.910Z,43.04
2022-11-01T18:52:47.754Z,42.89
2022-11-01T18:57:49.424Z,43.22
2022-11-01T19:02:53.789Z,43.09
2022-11-01T19:08:11.448Z,42.75
2022-11-01T19:13:25.999Z,43.00
2022-11-01T19:18:29.035Z,43.29
2022-11-01T19:23:38.353Z,43.08
2022-11-01T19:28:40.678Z,42.91
2022-11-01T19:33:46.882Z,42.98
2022-11-01T19:38:49.042Z,43.12
2022-11-01T19:43:51.270Z,43.30
2022-11-01T19:48:53.579Z,43.22
2022-11-01T19:53:55.339Z,43.42
2022-11-01T19:58:58.563Z,43.12
2022-11-01T20:04:02.597Z,43.10
2022-11-01T20:09:19.845Z,43.04
2022-11-01T20:14:22.956Z,43.09
2022-11-01T20:19:24.638Z,43.04
2022-11-01T20:24:27.644Z,43.33
2022-11-01T20:29:29.506Z,43.05
2022-11-01T20:34:31.616Z,43.29
2022-11-01T20:39:33.489Z,43.07
2022-11-01T20:44:35.192Z,43.44
2022-11-01T20:49:37.196Z,43.18
2022-11-01T20:54:39.131Z,43.29
2022-11-01T20:59:41.258Z,43.48
2022-11-01T21:04:43.400Z,43.22
2022-11-01T21:09:47.227Z,43.03
2022-11-01T21:14:49.464Z,42.68
2022-11-01T21:19:54.410Z,42.71
2022-11-01T21:24:57.703Z,42.41
2022-11-01T21:30:20.525Z,43.78
2022-11-01T21:35:39.084Z,43.92
2022-11-01T21:40:42.490Z,43.59
2022-11-01T21:45:46.621Z,44.07
2022-11-01T21:50:48.481Z,44.02
2022-11-01T21:55:50.305Z,43.66
2022-11-01T22:00:52.254Z,44.14
2022-11-01T22:05:54.011Z,43.99
2022-11-01T22:10:55.751Z,43.98
2022-11-01T22:15:57.515Z,43.79
2022-11-01T22:20:59.174Z,43.63
2022-11-01T22:26:00.994Z,43.67
2022-11-01T22:31:02.946Z,43.31
2022-11-01T22:36:07.222Z,43.49
2022-11-01T22:41:15.751Z,43.54
2022-11-01T22:46:23.088Z,43.65
2022-11-01T22:51:46.252Z,43.53
2022-11-01T22:57:15.919Z,43.84
2022-11-01T23:02:36.552Z,43.84
2022-11-01T23:07:43.032Z,43.71
2022-11-01T23:13:03.555Z,43.32
2022-11-01T23:18:16.231Z,43.38
2022-11-01T23:23:20.156Z,43.40
2022-11-01T23:28:23.485Z,43.26
2022-11-01T23:33:32.680Z,43.48
2022-11-01T23:39:03.033Z,43.47
2022-11-01T23:44:32.443Z,43.60
2022-11-01T23:49:34.907Z,43.65
2022-11-01T23:54:43.106Z,43.36
2022-11-01T23:59:44.932Z,43.50
